Time;durP1;ratioP1;P1;durP2;ratioP2;P2;SDS_P1;SDS_P2;PMS_P1;PMS_P2;Temp;Humidity;BMP_temperature;BMP_pressure;BME280_temperature;BME280_humidity;BME280_pressure;Samples;Min_cycle;Max_cycle;Signal;HPM_P1;HPM_P2
2023/04/29 00:00:10;;;;;;;4.82;4.10;;;;;;;;;;12702718;22;20020;-61
2023/04/29 00:05:09;;;;;;;5.25;4.72;;;;;;;;;;12699413;22;20462;-62
2023/04/29 00:10:08;;;;;;;9.32;7.07;;;;;;;;;;12700063;22;20016;-62
2023/04/29 00:15:08;;;;;;;6.43;4.78;;;;;;;;;;12699428;22;20023;-61
2023/04/29 00:20:07;;;;;;;7.90;5.18;;;;;;;;;;12699860;22;20107;-61
2023/04/29 00:25:06;;;;;;;6.30;4.75;;;;;;;;;;12699573;22;20016;-61
2023/04/29 00:30:05;;;;;;;6.07;4.30;;;;;;;;;;12698415;22;20019;-61
2023/04/29 00:35:05;;;;;;;11.75;5.90;;;;;;;;;;12699804;22;20039;-61
2023/04/29 00:40:05;;;;;;;7.43;4.13;;;;;;;;;;12671623;23;20047;-61
2023/04/29 00:45:03;;;;;;;6.22;5.00;;;;;;;;;;12699692;22;20031;-61
2023/04/29 00:50:07;;;;;;;7.70;4.88;;;;;;;;;;12703862;22;20012;-60
2023/04/29 00:55:07;;;;;;;5.70;5.13;;;;;;;;;;12699650;22;20020;-61
2023/04/29 01:00:08;;;;;;;7.47;5.30;;;;;;;;;;12695781;22;20023;-61
2023/04/29 01:05:09;;;;;;;6.80;4.38;;;;;;;;;;12702897;22;20339;-61
2023/04/29 01:10:10;;;;;;;6.40;4.45;;;;;;;;;;12670768;23;20027;-60
2023/04/29 01:15:11;;;;;;;5.95;4.55;;;;;;;;;;12703240;22;20020;-61
2023/04/29 01:20:10;;;;;;;6.53;5.45;;;;;;;;;;12673597;23;20023;-60
2023/04/29 01:25:10;;;;;;;5.07;4.68;;;;;;;;;;12675463;23;20016;-61
2023/04/29 01:30:35;;;;;;;12.40;5.78;;;;;;;;;;12688287;22;20027;-61
2023/04/29 01:35:40;;;;;;;7.35;4.90;;;;;;;;;;12673917;23;20366;-60
2023/04/29 01:40:44;;;;;;;5.88;4.90;;;;;;;;;;12675007;23;20017;-61
2023/04/29 01:45:50;;;;;;;5.60;4.97;;;;;;;;;;12674897;23;20016;-61
2023/04/29 01:50:48;;;;;;;6.78;4.70;;;;;;;;;;12703151;22;20020;-61
2023/04/29 01:55:48;;;;;;;5.60;5.05;;;;;;;;;;12674661;23;20023;-61
2023/04/29 02:00:54;;;;;;;5.72;4.65;;;;;;;;;;12674760;23;20362;-61
2023/04/29 02:05:52;;;;;;;8.75;5.35;;;;;;;;;;12674603;23;20020;-61
2023/04/29 02:10:56;;;;;;;10.68;4.15;;;;;;;;;;12674378;23;20016;-60
2023/04/29 02:16:13;;;;;;;6.43;4.20;;;;;;;;;;12675197;22;20472;-61
2023/04/29 02:21:33;;;;;;;7.45;4.97;;;;;;;;;;12700115;22;20031;-61
2023/04/29 02:26:34;;;;;;;7.70;4.70;;;;;;;;;;12673799;22;20050;-60
2023/04/29 02:31:32;;;;;;;7.75;4.85;;;;;;;;;;12719565;22;20016;-60
2023/04/29 02:36:31;;;;;;;5.07;4.47;;;;;;;;;;12674076;22;20489;-60
2023/04/29 02:41:29;;;;;;;6.32;4.65;;;;;;;;;;12701096;22;20019;-61
2023/04/29 02:46:29;;;;;;;9.23;4.60;;;;;;;;;;12673594;22;20020;-61
2023/04/29 02:51:27;;;;;;;6.15;4.18;;;;;;;;;;12700020;22;20020;-60
2023/04/29 02:56:26;;;;;;;6.00;4.13;;;;;;;;;;12673861;22;20031;-61
2023/04/29 03:01:24;;;;;;;6.28;4.55;;;;;;;;;;12673458;22;20020;-61
2023/04/29 03:06:24;;;;;;;6.38;4.90;;;;;;;;;;12699818;22;20064;-61
2023/04/29 03:11:23;;;;;;;9.02;5.57;;;;;;;;;;12700421;22;20012;-61
2023/04/29 03:16:22;;;;;;;12.95;8.93;;;;;;;;;;12671796;22;20020;-61
2023/04/29 03:21:20;;;;;;;12.82;8.27;;;;;;;;;;12700846;22;20016;-61
2023/04/29 03:26:21;;;;;;;12.00;7.15;;;;;;;;;;12673042;22;20019;-61
2023/04/29 03:31:21;;;;;;;5.55;4.22;;;;;;;;;;12672389;22;20023;-61
2023/04/29 03:36:20;;;;;;;5.85;4.13;;;;;;;;;;12670744;22;20016;-61
2023/04/29 03:41:39;;;;;;;8.55;4.30;;;;;;;;;;12671978;22;20027;-60
2023/04/29 03:46:38;;;;;;;5.28;4.45;;;;;;;;;;12671997;22;20043;-61
2023/04/29 03:51:37;;;;;;;5.05;3.95;;;;;;;;;;12672480;22;20027;-61
2023/04/29 03:56:43;;;;;;;9.55;5.07;;;;;;;;;;12672227;22;20019;-61
2023/04/29 04:01:42;;;;;;;8.98;5.28;;;;;;;;;;12671628;22;20020;-61
2023/04/29 04:06:42;;;;;;;6.38;3.60;;;;;;;;;;12671290;22;20020;-61
2023/04/29 04:11:43;;;;;;;9.57;6.03;;;;;;;;;;12671189;22;20016;-61
2023/04/29 04:16:42;;;;;;;6.75;4.53;;;;;;;;;;12671553;22;20012;-61
2023/04/29 04:21:41;;;;;;;7.22;5.93;;;;;;;;;;12671832;22;20047;-61
2023/04/29 04:26:41;;;;;;;11.13;7.03;;;;;;;;;;12670615;22;20016;-61
2023/04/29 04:31:58;;;;;;;7.03;4.75;;;;;;;;;;12671037;22;20027;-61
2023/04/29 04:36:57;;;;;;;6.88;4.88;;;;;;;;;;12670884;22;20643;-61
2023/04/29 04:41:55;;;;;;;7.97;5.03;;;;;;;;;;12698322;22;20023;-62
2023/04/29 04:46:54;;;;;;;8.85;4.68;;;;;;;;;;12670628;22;20023;-61
2023/04/29 04:52:12;;;;;;;5.07;3.75;;;;;;;;;;12714666;22;20031;-60
2023/04/29 04:57:12;;;;;;;4.53;3.33;;;;;;;;;;12670317;22;20024;-61
2023/04/29 05:02:12;;;;;;;7.03;3.85;;;;;;;;;;12670609;22;20068;-61
2023/04/29 05:07:12;;;;;;;7.72;4.80;;;;;;;;;;12671205;22;20020;-61
2023/04/29 05:12:31;;;;;;;11.63;5.93;;;;;;;;;;12670324;22;20023;-61
2023/04/29 05:17:31;;;;;;;8.15;6.07;;;;;;;;;;12670250;22;20020;-61
2023/04/29 05:22:30;;;;;;;4.90;4.28;;;;;;;;;;12696969;22;20028;-61
2023/04/29 05:27:29;;;;;;;8.70;3.97;;;;;;;;;;12695120;22;20012;-62
2023/04/29 05:32:28;;;;;;;6.00;3.90;;;;;;;;;;12670874;22;20016;-61
2023/04/29 05:37:29;;;;;;;6.70;4.95;;;;;;;;;;12668653;22;20016;-61
2023/04/29 05:42:46;;;;;;;10.43;4.90;;;;;;;;;;12670213;22;20020;-61
2023/04/29 05:47:45;;;;;;;10.98;5.53;;;;;;;;;;12694555;22;20466;-61
2023/04/29 05:52:43;;;;;;;7.18;5.93;;;;;;;;;;12688849;22;20016;-62
2023/04/29 05:57:42;;;;;;;5.10;3.67;;;;;;;;;;12667631;22;20023;-62
2023/04/29 06:02:44;;;;;;;9.38;4.57;;;;;;;;;;12667408;22;20031;-62
2023/04/29 06:07:55;;;;;;;7.63;4.63;;;;;;;;;;12665098;22;20042;-63
2023/04/29 06:13:14;;;;;;;6.40;3.88;;;;;;;;;;12663430;22;20012;-62
2023/04/29 06:18:14;;;;;;;7.80;3.60;;;;;;;;;;12664841;22;20669;-61
2023/04/29 06:23:13;;;;;;;4.80;3.78;;;;;;;;;;12670168;22;20020;-62
2023/04/29 06:28:14;;;;;;;4.75;3.10;;;;;;;;;;12671957;22;20020;-62
2023/04/29 06:33:14;;;;;;;5.05;3.58;;;;;;;;;;12708987;22;20115;-62
2023/04/29 06:38:12;;;;;;;6.50;3.30;;;;;;;;;;12668882;22;20016;-62
2023/04/29 06:43:29;;;;;;;4.20;3.38;;;;;;;;;;12709697;22;20028;-62
2023/04/29 06:48:48;;;;;;;7.45;4.28;;;;;;;;;;12711473;22;20012;-62
2023/04/29 06:53:47;;;;;;;6.25;4.97;;;;;;;;;;12674176;22;20443;-61
2023/04/29 06:58:46;;;;;;;6.05;4.10;;;;;;;;;;12700538;22;20012;-63
2023/04/29 07:03:44;;;;;;;4.78;3.50;;;;;;;;;;12700062;22;20354;-62
2023/04/29 07:08:44;;;;;;;4.80;3.33;;;;;;;;;;12701395;22;20016;-62
2023/04/29 07:13:42;;;;;;;7.75;4.57;;;;;;;;;;12672831;22;20016;-62
2023/04/29 07:18:40;;;;;;;7.55;5.35;;;;;;;;;;12699579;22;20027;-62
2023/04/29 07:23:38;;;;;;;6.22;5.38;;;;;;;;;;12673001;22;20047;-62
2023/04/29 07:28:38;;;;;;;8.43;3.63;;;;;;;;;;12699470;22;20119;-62
2023/04/29 07:33:36;;;;;;;7.45;3.95;;;;;;;;;;12700547;22;20020;-62
2023/04/29 07:38:35;;;;;;;6.72;4.25;;;;;;;;;;12672761;22;20024;-62
2023/04/29 07:43:34;;;;;;;7.05;3.65;;;;;;;;;;12672997;22;20027;-62
2023/04/29 07:48:38;;;;;;;6.07;3.72;;;;;;;;;;12672343;22;20476;-61
2023/04/29 07:53:36;;;;;;;4.93;4.10;;;;;;;;;;12672955;22;20020;-62
2023/04/29 07:58:34;;;;;;;5.22;3.30;;;;;;;;;;12672432;22;20043;-62
2023/04/29 08:03:32;;;;;;;11.50;8.23;;;;;;;;;;12672541;22;20016;-62
2023/04/29 08:08:33;;;;;;;6.20;4.70;;;;;;;;;;12672830;22;20046;-62
2023/04/29 08:13:31;;;;;;;4.72;3.60;;;;;;;;;;12672037;22;20235;-62
2023/04/29 08:18:31;;;;;;;3.50;3.20;;;;;;;;;;12671321;22;20020;-62
2023/04/29 08:23:31;;;;;;;4.65;3.92;;;;;;;;;;12671683;22;20023;-62
2023/04/29 08:28:31;;;;;;;4.40;3.58;;;;;;;;;;12696843;22;20024;-62
2023/04/29 08:33:29;;;;;;;6.18;3.63;;;;;;;;;;12698566;22;20024;-61
2023/04/29 08:38:27;;;;;;;5.45;3.40;;;;;;;;;;12699447;22;20012;-62
2023/04/29 08:43:26;;;;;;;8.88;6.25;;;;;;;;;;12699148;22;20107;-62
2023/04/29 08:48:27;;;;;;;4.85;3.20;;;;;;;;;;12698415;22;20426;-62
2023/04/29 08:53:26;;;;;;;5.88;4.00;;;;;;;;;;12697245;22;20024;-62
2023/04/29 08:58:25;;;;;;;8.65;3.20;;;;;;;;;;12699101;22;20012;-62
2023/04/29 09:03:26;;;;;;;6.72;4.05;;;;;;;;;;12698777;22;20012;-62
2023/04/29 09:08:26;;;;;;;5.05;3.70;;;;;;;;;;12710096;22;20020;-61
2023/04/29 09:13:25;;;;;;;6.30;3.88;;;;;;;;;;12698493;22;20023;-61
2023/04/29 09:18:38;;;;;;;3.47;3.17;;;;;;;;;;12698937;22;20418;-61
2023/04/29 09:23:38;;;;;;;6.18;3.88;;;;;;;;;;12693841;22;20027;-62
2023/04/29 09:28:38;;;;;;;4.10;3.30;;;;;;;;;;12697416;22;20025;-61
2023/04/29 09:33:54;;;;;;;5.68;4.00;;;;;;;;;;12699332;22;20016;-61
2023/04/29 09:38:57;;;;;;;3.97;3.17;;;;;;;;;;12699403;22;20031;-62
2023/04/29 09:44:03;;;;;;;5.95;4.15;;;;;;;;;;12702038;22;20020;-62
2023/04/29 09:49:05;;;;;;;11.10;4.30;;;;;;;;;;12701848;22;20012;-61
2023/04/29 09:54:19;;;;;;;6.13;3.50;;;;;;;;;;12702732;22;20346;-61
2023/04/29 09:59:18;;;;;;;5.68;4.00;;;;;;;;;;12700740;22;20016;-62
2023/04/29 10:04:17;;;;;;;6.85;3.75;;;;;;;;;;12701783;22;20074;-63
2023/04/29 10:09:17;;;;;;;4.93;3.90;;;;;;;;;;12702336;22;20016;-62
2023/04/29 10:14:16;;;;;;;3.78;3.30;;;;;;;;;;12699871;22;20045;-62
2023/04/29 10:19:26;;;;;;;7.35;3.50;;;;;;;;;;12702333;22;20009;-62
2023/04/29 10:24:26;;;;;;;6.88;3.35;;;;;;;;;;12709078;22;20373;-62
2023/04/29 10:29:26;;;;;;;7.28;3.30;;;;;;;;;;12700832;22;20378;-62
2023/04/29 10:34:25;;;;;;;4.68;3.50;;;;;;;;;;12673942;23;20020;-62
2023/04/29 10:39:26;;;;;;;6.72;3.60;;;;;;;;;;12701519;22;20430;-62
2023/04/29 10:44:26;;;;;;;6.25;3.22;;;;;;;;;;12700532;22;20020;-62
2023/04/29 10:49:25;;;;;;;12.85;9.60;;;;;;;;;;12701007;22;20018;-62
2023/04/29 10:54:24;;;;;;;4.70;3.03;;;;;;;;;;12701542;22;20016;-62
2023/04/29 10:59:43;;;;;;;5.60;2.90;;;;;;;;;;12700171;22;20083;-62
2023/04/29 11:04:56;;;;;;;6.55;3.20;;;;;;;;;;12698982;22;20020;-62
2023/04/29 11:09:55;;;;;;;3.60;2.97;;;;;;;;;;12699808;22;20020;-62
2023/04/29 11:15:00;;;;;;;5.30;3.90;;;;;;;;;;12699761;22;20016;-62
2023/04/29 11:19:58;;;;;;;6.45;3.92;;;;;;;;;;12705638;22;20008;-62
2023/04/29 11:24:59;;;;;;;4.35;3.95;;;;;;;;;;12699644;22;20111;-63
2023/04/29 11:29:58;;;;;;;4.93;4.43;;;;;;;;;;12704432;22;20475;-62
2023/04/29 11:35:06;;;;;;;4.90;3.80;;;;;;;;;;12700961;22;20540;-63
2023/04/29 11:40:07;;;;;;;3.70;3.38;;;;;;;;;;12703996;22;20012;-62
2023/04/29 11:45:06;;;;;;;4.50;3.67;;;;;;;;;;12705051;22;20016;-62
2023/04/29 11:50:05;;;;;;;6.13;3.08;;;;;;;;;;12700555;22;20012;-61
2023/04/29 11:55:03;;;;;;;6.32;3.90;;;;;;;;;;12698466;22;20016;-61
2023/04/29 12:00:03;;;;;;;13.98;4.15;;;;;;;;;;12699189;22;20008;-61
2023/04/29 12:05:06;;;;;;;4.28;3.70;;;;;;;;;;12704633;22;20031;-62
2023/04/29 12:10:07;;;;;;;5.13;3.80;;;;;;;;;;12704403;22;20412;-61
2023/04/29 12:15:08;;;;;;;9.07;3.17;;;;;;;;;;12704164;22;20016;-61
2023/04/29 12:20:08;;;;;;;9.45;3.47;;;;;;;;;;12703879;22;20016;-60
2023/04/29 12:25:07;;;;;;;5.20;3.58;;;;;;;;;;12698828;22;20024;-61
2023/04/29 12:30:08;;;;;;;6.53;5.00;;;;;;;;;;12698292;22;20008;-61
2023/04/29 12:35:15;;;;;;;5.43;3.38;;;;;;;;;;12698902;22;20031;-61
2023/04/29 12:40:14;;;;;;;4.53;3.95;;;;;;;;;;12698789;22;20012;-61
2023/04/29 12:45:29;;;;;;;4.93;3.55;;;;;;;;;;12701668;22;20446;-60
2023/04/29 12:50:29;;;;;;;4.10;3.17;;;;;;;;;;12702319;22;20350;-61
2023/04/29 12:55:27;;;;;;;5.82;3.85;;;;;;;;;;12699488;22;20354;-61
2023/04/29 13:00:26;;;;;;;4.47;2.90;;;;;;;;;;12697449;22;20020;-61
2023/04/29 13:05:25;;;;;;;5.38;3.97;;;;;;;;;;12699510;22;20016;-61
2023/04/29 13:10:23;;;;;;;6.60;3.05;;;;;;;;;;12699192;22;20012;-61
2023/04/29 13:15:22;;;;;;;7.65;3.63;;;;;;;;;;12702124;22;20434;-62
2023/04/29 13:20:29;;;;;;;7.47;3.90;;;;;;;;;;12705271;22;20019;-62
2023/04/29 13:25:27;;;;;;;5.22;3.42;;;;;;;;;;12702238;22;20039;-62
2023/04/29 13:30:25;;;;;;;6.53;3.50;;;;;;;;;;12702060;22;20015;-62
2023/04/29 13:35:23;;;;;;;6.88;3.45;;;;;;;;;;12702207;22;20442;-62
2023/04/29 13:40:23;;;;;;;5.57;3.55;;;;;;;;;;12675097;23;20016;-62
2023/04/29 13:45:25;;;;;;;7.22;3.83;;;;;;;;;;12702252;22;20024;-61
2023/04/29 13:50:26;;;;;;;6.13;3.45;;;;;;;;;;12700884;22;20343;-61
2023/04/29 13:55:48;;;;;;;6.85;4.28;;;;;;;;;;12702237;22;20020;-62
2023/04/29 14:01:06;;;;;;;7.32;3.50;;;;;;;;;;12675174;23;20067;-61
2023/04/29 14:06:24;;;;;;;6.55;3.58;;;;;;;;;;12701209;22;20020;-61
2023/04/29 14:11:24;;;;;;;7.13;3.80;;;;;;;;;;12701400;22;20430;-62
2023/04/29 14:16:22;;;;;;;8.07;3.60;;;;;;;;;;12701362;22;20017;-62
2023/04/29 14:21:21;;;;;;;9.00;3.95;;;;;;;;;;12701452;22;20029;-61
2023/04/29 14:26:19;;;;;;;5.90;3.60;;;;;;;;;;12699818;22;20435;-62
2023/04/29 14:31:27;;;;;;;5.70;3.35;;;;;;;;;;12578587;23;20021;-61
2023/04/29 14:36:26;;;;;;;7.13;5.13;;;;;;;;;;12577953;23;20028;-62
2023/04/29 14:41:26;;;;;;;5.25;3.70;;;;;;;;;;12578674;23;20032;-61
2023/04/29 14:46:25;;;;;;;8.18;5.32;;;;;;;;;;12577878;23;20481;-61
2023/04/29 14:51:25;;;;;;;13.55;10.23;;;;;;;;;;12578804;23;20028;-62
2023/04/29 14:56:23;;;;;;;5.38;4.07;;;;;;;;;;12577756;23;20036;-62
2023/04/29 15:01:22;;;;;;;6.65;3.80;;;;;;;;;;12576971;23;20021;-62
2023/04/29 15:06:20;;;;;;;14.73;12.18;;;;;;;;;;12577959;23;20032;-62
2023/04/29 15:11:20;;;;;;;6.88;4.07;;;;;;;;;;12577206;23;20060;-63
2023/04/29 15:16:18;;;;;;;9.40;6.60;;;;;;;;;;12577007;23;20028;-61
2023/04/29 15:21:19;;;;;;;6.50;5.03;;;;;;;;;;12577523;23;20021;-61
2023/04/29 15:26:18;;;;;;;5.05;3.42;;;;;;;;;;12596736;23;20465;-61
2023/04/29 15:31:20;;;;;;;15.77;7.78;;;;;;;;;;12698067;22;20031;-61
2023/04/29 15:36:27;;;;;;;6.55;4.43;;;;;;;;;;12699221;22;20031;-62
2023/04/29 15:41:25;;;;;;;7.73;5.67;;;;;;;;;;12719316;22;20382;-61
2023/04/29 15:46:26;;;;;;;6.80;4.90;;;;;;;;;;12699505;22;20016;-62
2023/04/29 15:51:24;;;;;;;5.32;4.30;;;;;;;;;;12698331;22;20020;-62
2023/04/29 15:56:23;;;;;;;9.20;5.35;;;;;;;;;;12699164;22;20016;-61
2023/04/29 16:01:21;;;;;;;13.57;10.35;;;;;;;;;;12699380;22;20016;-61
2023/04/29 16:06:20;;;;;;;7.75;5.07;;;;;;;;;;12698995;22;20027;-61
2023/04/29 16:11:20;;;;;;;13.93;7.63;;;;;;;;;;12698771;22;20016;-61
2023/04/29 16:16:18;;;;;;;31.40;17.25;;;;;;;;;;12698710;22;20020;-61
2023/04/29 16:21:16;;;;;;;13.20;8.55;;;;;;;;;;12699019;22;20020;-62
2023/04/29 16:26:16;;;;;;;7.43;5.22;;;;;;;;;;12698385;22;20331;-62
2023/04/29 16:31:14;;;;;;;8.32;5.53;;;;;;;;;;12698432;22;20008;-62
2023/04/29 16:36:12;;;;;;;12.63;7.05;;;;;;;;;;12698643;22;20016;-62
2023/04/29 16:41:10;;;;;;;10.07;5.82;;;;;;;;;;12699328;23;20435;-61
2023/04/29 16:46:10;;;;;;;10.60;7.03;;;;;;;;;;12699974;23;20096;-62
2023/04/29 16:51:08;;;;;;;12.07;6.50;;;;;;;;;;12699467;23;20019;-62
2023/04/29 16:56:07;;;;;;;15.50;8.57;;;;;;;;;;12698619;23;20013;-62
2023/04/29 17:01:06;;;;;;;13.20;5.65;;;;;;;;;;12700149;22;20012;-61
2023/04/29 17:06:06;;;;;;;9.43;4.85;;;;;;;;;;12699487;22;20023;-61
2023/04/29 17:11:05;;;;;;;8.82;4.38;;;;;;;;;;12670510;23;20018;-61
2023/04/29 17:16:03;;;;;;;9.32;4.88;;;;;;;;;;12699327;22;20013;-62
2023/04/29 17:21:01;;;;;;;6.13;4.95;;;;;;;;;;12698493;22;20020;-62
2023/04/29 17:26:01;;;;;;;7.63;5.68;;;;;;;;;;12697136;22;20020;-62
2023/04/29 17:31:00;;;;;;;8.20;5.30;;;;;;;;;;12699054;22;20315;-62
2023/04/29 17:36:00;;;;;;;9.90;5.38;;;;;;;;;;12698214;22;20438;-62
2023/04/29 17:40:58;;;;;;;9.45;5.47;;;;;;;;;;12697765;22;20046;-62
2023/04/29 17:45:59;;;;;;;10.60;4.68;;;;;;;;;;12699499;22;20016;-61
2023/04/29 17:50:57;;;;;;;5.78;3.95;;;;;;;;;;12698485;22;20454;-62
2023/04/29 17:55:55;;;;;;;6.63;5.43;;;;;;;;;;12697481;22;20027;-62
2023/04/29 18:00:54;;;;;;;6.45;4.43;;;;;;;;;;12700144;22;20350;-61
2023/04/29 18:05:54;;;;;;;7.80;4.13;;;;;;;;;;12701558;22;20020;-62
2023/04/29 18:10:52;;;;;;;9.35;4.72;;;;;;;;;;12701884;22;20023;-62
2023/04/29 18:15:50;;;;;;;5.55;4.68;;;;;;;;;;12699568;22;20016;-61
2023/04/29 18:20:49;;;;;;;7.47;5.90;;;;;;;;;;12701198;22;20024;-62
2023/04/29 18:25:48;;;;;;;11.32;7.70;;;;;;;;;;12674493;23;20027;-61
2023/04/29 18:30:47;;;;;;;6.53;5.05;;;;;;;;;;12701003;22;20016;-62
2023/04/29 18:35:45;;;;;;;4.75;4.00;;;;;;;;;;12701268;22;20020;-62
2023/04/29 18:40:44;;;;;;;7.45;6.03;;;;;;;;;;12701198;22;20027;-61
2023/04/29 18:45:43;;;;;;;8.70;6.90;;;;;;;;;;12700792;22;20110;-62
2023/04/29 18:50:42;;;;;;;6.85;5.57;;;;;;;;;;12700780;22;20462;-61
2023/04/29 18:55:40;;;;;;;5.78;5.18;;;;;;;;;;12701963;22;20031;-62
2023/04/29 19:00:38;;;;;;;8.35;6.10;;;;;;;;;;12701933;22;20008;-62
2023/04/29 19:05:38;;;;;;;9.65;6.65;;;;;;;;;;12700468;22;20024;-63
2023/04/29 19:10:36;;;;;;;5.35;4.78;;;;;;;;;;12673145;23;20457;-62
2023/04/29 19:15:34;;;;;;;6.82;4.82;;;;;;;;;;12701581;22;20019;-62
2023/04/29 19:20:33;;;;;;;6.90;6.20;;;;;;;;;;12700584;22;20016;-62
2023/04/29 19:25:32;;;;;;;4.70;4.28;;;;;;;;;;12672816;23;20024;-62
2023/04/29 19:30:31;;;;;;;5.95;4.47;;;;;;;;;;12700175;22;20012;-63
2023/04/29 19:35:29;;;;;;;6.82;5.15;;;;;;;;;;12701155;22;20012;-60
2023/04/29 19:40:27;;;;;;;8.80;5.03;;;;;;;;;;12699700;22;20019;-61
2023/04/29 19:45:27;;;;;;;8.27;4.05;;;;;;;;;;12700990;22;20020;-61
2023/04/29 19:50:25;;;;;;;7.82;3.35;;;;;;;;;;12672989;23;20023;-61
2023/04/29 19:55:24;;;;;;;5.88;4.65;;;;;;;;;;12699798;22;20450;-62
2023/04/29 20:00:22;;;;;;;7.10;6.20;;;;;;;;;;12701093;22;20019;-62
2023/04/29 20:05:22;;;;;;;10.60;5.82;;;;;;;;;;12699449;22;20020;-62
2023/04/29 20:10:20;;;;;;;10.23;8.93;;;;;;;;;;12698080;22;20031;-62
2023/04/29 20:15:18;;;;;;;10.57;8.43;;;;;;;;;;12700269;22;20016;-63
2023/04/29 20:20:16;;;;;;;8.10;4.65;;;;;;;;;;12699553;22;20035;-63
2023/04/29 20:25:16;;;;;;;4.35;3.95;;;;;;;;;;12699774;22;20016;-62
2023/04/29 20:30:14;;;;;;;7.15;4.03;;;;;;;;;;12698392;22;20024;-62
2023/04/29 20:35:12;;;;;;;6.22;4.10;;;;;;;;;;12671632;23;20020;-62
2023/04/29 20:40:11;;;;;;;7.40;3.50;;;;;;;;;;12695445;22;20012;-60
2023/04/29 20:45:12;;;;;;;9.65;4.47;;;;;;;;;;12697334;22;20339;-61
2023/04/29 20:50:10;;;;;;;11.93;4.65;;;;;;;;;;12695986;22;20338;-61
2023/04/29 20:55:09;;;;;;;6.35;4.32;;;;;;;;;;12696614;22;20020;-60
2023/04/29 21:00:08;;;;;;;6.28;3.80;;;;;;;;;;12694503;22;20020;-61
2023/04/29 21:05:08;;;;;;;7.82;3.97;;;;;;;;;;12697231;22;20257;-61
2023/04/29 21:10:07;;;;;;;4.68;3.95;;;;;;;;;;12701444;22;20024;-61
2023/04/29 21:15:08;;;;;;;7.28;3.50;;;;;;;;;;12700492;22;20450;-60
2023/04/29 21:20:09;;;;;;;5.28;3.83;;;;;;;;;;12667598;23;20019;-61
2023/04/29 21:25:07;;;;;;;6.45;4.35;;;;;;;;;;12694410;22;20351;-61
2023/04/29 21:30:06;;;;;;;8.43;3.92;;;;;;;;;;12693269;22;20446;-61
2023/04/29 21:35:05;;;;;;;4.10;3.70;;;;;;;;;;12698074;22;20035;-61
2023/04/29 21:40:05;;;;;;;8.10;3.85;;;;;;;;;;12703143;22;20008;-60
2023/04/29 21:45:03;;;;;;;7.22;3.33;;;;;;;;;;12703056;22;20012;-61
2023/04/29 21:50:01;;;;;;;4.50;3.58;;;;;;;;;;12702032;22;20457;-61
2023/04/29 21:54:59;;;;;;;6.25;4.75;;;;;;;;;;12700814;22;20051;-61
2023/04/29 21:59:59;;;;;;;5.75;3.10;;;;;;;;;;12701504;22;20020;-61
2023/04/29 22:04:57;;;;;;;7.93;4.18;;;;;;;;;;12700272;22;20039;-61
2023/04/29 22:09:55;;;;;;;6.70;5.40;;;;;;;;;;12701082;22;20020;-61
2023/04/29 22:14:53;;;;;;;6.88;5.35;;;;;;;;;;12674225;23;20031;-61
2023/04/29 22:19:53;;;;;;;6.10;4.80;;;;;;;;;;12700522;22;20023;-61
2023/04/29 22:24:52;;;;;;;7.13;4.72;;;;;;;;;;12702309;22;20354;-61
2023/04/29 22:29:50;;;;;;;8.95;5.40;;;;;;;;;;12700027;22;20019;-61
2023/04/29 22:34:49;;;;;;;6.68;5.53;;;;;;;;;;12700653;22;20016;-61
2023/04/29 22:39:49;;;;;;;6.63;4.65;;;;;;;;;;12700757;22;20016;-61
2023/04/29 22:44:47;;;;;;;6.00;5.20;;;;;;;;;;12700169;22;20434;-61
2023/04/29 22:49:45;;;;;;;5.05;4.45;;;;;;;;;;12701404;22;20020;-61
2023/04/29 22:54:43;;;;;;;5.47;4.97;;;;;;;;;;12701660;22;20012;-61
2023/04/29 22:59:43;;;;;;;5.95;5.32;;;;;;;;;;12699524;22;20013;-61
2023/04/29 23:04:41;;;;;;;8.32;5.03;;;;;;;;;;12700119;22;20350;-61
2023/04/29 23:09:39;;;;;;;6.65;4.82;;;;;;;;;;12699923;22;20028;-61
2023/04/29 23:14:37;;;;;;;9.20;5.03;;;;;;;;;;12699847;22;20066;-61
2023/04/29 23:19:37;;;;;;;4.78;4.28;;;;;;;;;;12700059;22;20024;-60
2023/04/29 23:24:35;;;;;;;4.75;4.25;;;;;;;;;;12699706;22;20016;-60
2023/04/29 23:29:34;;;;;;;5.10;4.57;;;;;;;;;;12700031;22;20538;-61
2023/04/29 23:34:32;;;;;;;5.50;4.43;;;;;;;;;;12700682;22;20358;-60
2023/04/29 23:39:31;;;;;;;5.25;3.90;;;;;;;;;;12699091;22;20020;-60
2023/04/29 23:44:30;;;;;;;7.22;4.18;;;;;;;;;;12698139;22;20350;-60
2023/04/29 23:49:28;;;;;;;7.55;4.68;;;;;;;;;;12671046;23;20024;-60
2023/04/29 23:54:26;;;;;;;6.68;4.47;;;;;;;;;;12698882;22;20028;-60
2023/04/29 23:59:26;;;;;;;7.40;4.85;;;;;;;;;;12700246;22;20012;-61
